createdAt,value
2017-07-03T00:02:04.722Z,12.67
2017-07-03T00:04:32.142Z,12.87
2017-07-03T00:06:59.565Z,12.97
2017-07-03T00:09:26.998Z,12.93
2017-07-03T00:11:54.413Z,12.37
2017-07-03T00:14:21.856Z,13.13
2017-07-03T00:16:49.305Z,13.00
2017-07-03T00:19:16.742Z,12.40
2017-07-03T00:21:44.165Z,12.40
2017-07-03T00:24:11.586Z,13.37
2017-07-03T00:26:38.994Z,13.20
2017-07-03T00:29:06.423Z,14.17
2017-07-03T00:31:33.838Z,12.17
2017-07-03T00:34:01.276Z,12.63
2017-07-03T00:36:28.685Z,12.27
2017-07-03T00:38:56.166Z,12.57
2017-07-03T00:41:23.594Z,11.33
2017-07-03T00:43:51.030Z,11.70
2017-07-03T00:46:18.459Z,13.70
2017-07-03T00:48:45.866Z,12.43
2017-07-03T00:51:13.294Z,12.93
2017-07-03T00:53:40.717Z,11.90
2017-07-03T00:56:08.126Z,12.50
2017-07-03T00:58:35.558Z,12.57
2017-07-03T01:01:02.980Z,15.13
2017-07-03T01:03:30.389Z,12.20
2017-07-03T01:05:57.809Z,11.80
2017-07-03T01:08:25.273Z,14.13
2017-07-03T01:10:52.747Z,13.20
2017-07-03T01:13:20.154Z,12.97
2017-07-03T01:15:47.580Z,14.00
2017-07-03T01:18:15.006Z,13.43
2017-07-03T01:20:42.419Z,12.80
2017-07-03T01:23:09.848Z,12.87
2017-07-03T01:25:37.515Z,12.20
2017-07-03T01:28:04.938Z,13.13
2017-07-03T01:30:32.367Z,12.27
2017-07-03T01:32:59.799Z,12.30
2017-07-03T01:35:27.226Z,12.90
2017-07-03T01:37:54.674Z,12.40
2017-07-03T01:40:22.097Z,12.13
2017-07-03T01:42:49.533Z,13.13
2017-07-03T01:45:16.966Z,12.17
2017-07-03T01:47:44.385Z,13.03
2017-07-03T01:50:11.831Z,11.93
2017-07-03T01:52:39.248Z,13.53
2017-07-03T01:55:06.677Z,14.97
2017-07-03T01:57:34.113Z,12.90
2017-07-03T02:00:01.522Z,11.97
2017-07-03T02:02:28.954Z,11.27
2017-07-03T02:04:56.375Z,11.90
2017-07-03T02:07:23.802Z,11.60
2017-07-03T02:09:51.230Z,16.73
2017-07-03T02:12:18.646Z,13.77
2017-07-03T02:14:46.089Z,13.60
2017-07-03T02:17:13.493Z,13.20
2017-07-03T02:19:40.929Z,13.73
2017-07-03T02:22:08.350Z,11.67
2017-07-03T02:24:35.765Z,12.30
2017-07-03T02:27:03.198Z,12.67
2017-07-03T02:29:30.609Z,11.13
2017-07-03T02:31:58.018Z,12.27
2017-07-03T02:34:25.446Z,12.70
2017-07-03T02:36:52.912Z,11.20
2017-07-03T02:39:20.358Z,13.77
2017-07-03T02:41:47.793Z,13.80
2017-07-03T02:44:15.207Z,12.20
2017-07-03T02:46:42.625Z,12.03
2017-07-03T02:49:10.049Z,11.40
2017-07-03T02:51:37.821Z,11.27
2017-07-03T02:54:05.237Z,11.57
2017-07-03T02:56:32.649Z,11.73
2017-07-03T02:59:00.075Z,12.10
2017-07-03T03:01:27.485Z,12.17
2017-07-03T03:03:54.913Z,13.10
2017-07-03T03:06:22.325Z,12.70
2017-07-03T03:08:49.741Z,12.27
2017-07-03T03:11:17.170Z,11.13
2017-07-03T03:13:44.585Z,11.00
2017-07-03T03:16:12.021Z,11.53
2017-07-03T03:18:39.433Z,10.90
2017-07-03T03:21:06.861Z,11.77
2017-07-03T03:23:34.286Z,12.17
2017-07-03T03:26:01.726Z,11.13
2017-07-03T03:28:29.142Z,12.13
2017-07-03T03:30:56.579Z,11.40
2017-07-03T03:33:24.050Z,12.03
2017-07-03T03:35:51.466Z,12.10
2017-07-03T03:38:18.911Z,12.47
2017-07-03T03:40:46.325Z,12.53
2017-07-03T03:43:13.749Z,12.00
2017-07-03T03:45:47.150Z,11.77
2017-07-03T03:48:14.585Z,11.27
2017-07-03T03:50:42.029Z,11.63
2017-07-03T03:53:09.449Z,10.93
2017-07-03T03:55:36.870Z,13.90
2017-07-03T03:58:04.314Z,12.00
2017-07-03T04:00:31.741Z,12.10
2017-07-03T04:02:59.167Z,11.40
2017-07-03T04:05:26.597Z,11.53
2017-07-03T04:07:54.036Z,11.00
2017-07-03T04:10:21.447Z,10.80
2017-07-03T04:12:48.905Z,10.70
2017-07-03T04:15:16.323Z,10.90
2017-07-03T04:17:43.738Z,10.60
2017-07-03T04:20:11.203Z,10.33
2017-07-03T04:22:38.616Z,10.90
2017-07-03T04:25:06.053Z,11.47
2017-07-03T04:27:33.463Z,10.73
2017-07-03T04:30:00.875Z,11.53
2017-07-03T04:32:28.302Z,11.50
2017-07-03T04:34:55.798Z,11.10
2017-07-03T04:37:23.238Z,10.70
2017-07-03T04:39:50.650Z,10.23
2017-07-03T04:42:18.095Z,10.30
2017-07-03T04:44:45.515Z,9.90
2017-07-03T04:47:12.937Z,10.33
2017-07-03T04:49:40.361Z,10.77
2017-07-03T04:52:07.776Z,11.73
2017-07-03T04:54:35.197Z,12.53
2017-07-03T04:57:02.610Z,11.80
2017-07-03T04:59:30.060Z,12.23
2017-07-03T05:01:57.481Z,17.10
2017-07-03T05:04:24.909Z,14.90
2017-07-03T05:06:52.337Z,13.63
2017-07-03T05:09:19.748Z,12.83
2017-07-03T05:11:47.181Z,13.43
2017-07-03T05:14:14.602Z,14.20
2017-07-03T05:16:42.050Z,14.23
2017-07-03T05:19:09.500Z,17.43
2017-07-03T05:21:36.928Z,12.83
2017-07-03T05:24:04.356Z,12.50
2017-07-03T05:26:31.774Z,13.23
2017-07-03T05:28:59.257Z,13.63
2017-07-03T05:31:26.674Z,14.10
2017-07-03T05:33:54.105Z,13.30
2017-07-03T05:36:21.522Z,16.10
2017-07-03T05:38:48.941Z,12.73
2017-07-03T05:41:16.372Z,13.93
2017-07-03T05:43:49.301Z,14.97
2017-07-03T05:46:16.729Z,15.37
2017-07-03T05:48:44.134Z,14.57
2017-07-03T05:51:11.561Z,14.53
2017-07-03T05:53:38.965Z,14.40
2017-07-03T05:56:06.405Z,14.73
2017-07-03T05:58:33.814Z,17.00
2017-07-03T06:01:01.238Z,17.50
2017-07-03T06:03:28.705Z,16.47
2017-07-03T06:05:56.153Z,15.50
2017-07-03T06:08:23.581Z,21.13
2017-07-03T06:10:51.027Z,16.93
2017-07-03T06:13:18.462Z,14.80
2017-07-03T06:15:45.865Z,21.13
2017-07-03T06:18:13.282Z,14.60
2017-07-03T06:20:40.753Z,15.07
2017-07-03T06:23:08.166Z,15.10
2017-07-03T06:25:35.595Z,16.17
2017-07-03T06:28:03.009Z,14.13
2017-07-03T06:30:30.425Z,15.30
2017-07-03T06:32:57.853Z,14.53
2017-07-03T06:35:25.261Z,14.53
2017-07-03T06:37:52.706Z,13.97
2017-07-03T06:40:20.116Z,16.63
2017-07-03T06:42:48.369Z,15.37
2017-07-03T06:45:15.795Z,26.43
2017-07-03T06:47:43.246Z,18.83
2017-07-03T06:50:10.725Z,16.70
2017-07-03T06:52:38.163Z,14.13
2017-07-03T06:55:05.613Z,19.10
2017-07-03T06:57:33.022Z,14.07
2017-07-03T07:00:00.453Z,18.20
2017-07-03T07:02:27.895Z,15.07
2017-07-03T07:04:55.305Z,15.13
2017-07-03T07:07:22.742Z,17.33
2017-07-03T07:09:50.167Z,12.77
2017-07-03T07:12:17.613Z,16.43
2017-07-03T07:14:45.026Z,15.87
2017-07-03T07:17:12.442Z,18.27
2017-07-03T07:19:39.884Z,14.97
2017-07-03T07:22:07.323Z,23.30
2017-07-03T07:24:34.824Z,14.30
2017-07-03T07:27:02.257Z,15.37
2017-07-03T07:29:29.902Z,13.53
2017-07-03T07:31:57.337Z,11.67
2017-07-03T07:34:24.748Z,13.40
2017-07-03T07:36:52.183Z,11.47
2017-07-03T07:39:19.598Z,12.50
2017-07-03T07:41:47.037Z,13.50
2017-07-03T07:44:14.461Z,14.53
2017-07-03T07:46:41.873Z,14.63
2017-07-03T07:49:09.306Z,18.77
2017-07-03T07:51:36.717Z,18.37
2017-07-03T07:54:04.167Z,14.40
2017-07-03T07:56:31.593Z,16.17
2017-07-03T07:58:59.009Z,17.60
2017-07-03T08:01:26.429Z,13.47
2017-07-03T08:03:53.834Z,14.33
2017-07-03T08:06:21.257Z,13.60
2017-07-03T08:08:48.665Z,12.70
2017-07-03T08:11:16.100Z,11.37
2017-07-03T08:13:43.519Z,12.97
2017-07-03T08:16:10.929Z,8.60
2017-07-03T08:18:38.346Z,10.27
2017-07-03T08:21:05.754Z,11.87
2017-07-03T08:23:33.177Z,11.20
2017-07-03T08:26:00.587Z,8.90
2017-07-03T08:28:28.018Z,15.27
2017-07-03T08:30:55.422Z,11.10
2017-07-03T08:33:22.830Z,17.90
2017-07-03T08:35:50.262Z,12.77
2017-07-03T08:38:17.670Z,12.40
2017-07-03T08:40:45.090Z,13.50
2017-07-03T08:43:12.499Z,11.40
2017-07-03T08:45:39.925Z,16.50
2017-07-03T08:48:07.331Z,9.67
2017-07-03T08:50:34.750Z,14.23
2017-07-03T08:53:02.180Z,13.47
2017-07-03T08:55:29.577Z,10.27
2017-07-03T08:57:57.004Z,14.47
2017-07-03T09:00:24.405Z,8.97
2017-07-03T09:02:51.838Z,16.53
2017-07-03T09:05:19.245Z,10.70
2017-07-03T09:07:46.653Z,15.10
2017-07-03T09:10:14.071Z,14.90
2017-07-03T09:12:41.477Z,13.10
2017-07-03T09:15:08.897Z,12.87
2017-07-03T09:17:36.310Z,9.53
2017-07-03T09:20:03.737Z,13.40
2017-07-03T09:22:31.134Z,8.03
2017-07-03T09:24:58.557Z,10.87
2017-07-03T09:27:25.960Z,7.73
2017-07-03T09:29:53.372Z,10.57
2017-07-03T09:32:20.781Z,8.60
2017-07-03T09:34:48.186Z,9.30
2017-07-03T09:37:15.600Z,7.97
2017-07-03T09:39:43.018Z,10.30
2017-07-03T09:42:10.451Z,8.17
2017-07-03T09:44:37.874Z,8.70
2017-07-03T09:47:05.293Z,9.97
2017-07-03T09:49:32.714Z,8.00
2017-07-03T09:52:00.134Z,7.40
2017-07-03T09:54:27.561Z,7.60
2017-07-03T09:56:54.973Z,8.20
2017-07-03T09:59:22.406Z,11.60
2017-07-03T10:01:49.820Z,9.17
2017-07-03T10:04:17.250Z,8.70
2017-07-03T10:06:44.648Z,7.87
2017-07-03T10:09:12.084Z,10.07
2017-07-03T10:11:39.549Z,9.00
2017-07-03T10:14:06.977Z,12.00
2017-07-03T10:16:34.410Z,9.23
2017-07-03T10:19:01.823Z,8.60
2017-07-03T10:21:29.269Z,8.20
2017-07-03T10:23:56.702Z,9.03
2017-07-03T10:26:24.105Z,9.13
2017-07-03T10:28:51.530Z,8.70
2017-07-03T10:31:18.934Z,7.97
2017-07-03T10:33:46.354Z,10.27
2017-07-03T10:36:13.785Z,8.17
2017-07-03T10:38:41.235Z,8.53
2017-07-03T10:41:08.637Z,8.70
2017-07-03T10:43:36.047Z,8.70
2017-07-03T10:46:03.458Z,8.27
2017-07-03T10:48:30.870Z,8.30
2017-07-03T10:50:58.291Z,8.97
2017-07-03T10:53:25.695Z,10.83
2017-07-03T10:55:53.133Z,8.70
2017-07-03T10:58:20.536Z,8.30
2017-07-03T11:00:47.938Z,8.10
2017-07-03T11:03:15.359Z,8.40
2017-07-03T11:05:42.769Z,11.03
2017-07-03T11:08:10.186Z,8.67
2017-07-03T11:10:37.589Z,9.40
2017-07-03T11:13:05.063Z,8.10
2017-07-03T11:15:32.473Z,8.10
2017-07-03T11:17:59.878Z,8.33
2017-07-03T11:20:27.299Z,8.43
2017-07-03T11:22:54.734Z,8.87
2017-07-03T11:25:22.147Z,8.03
2017-07-03T11:27:49.551Z,9.30
2017-07-03T11:30:16.989Z,7.87
2017-07-03T11:32:44.402Z,9.30
2017-07-03T11:35:11.804Z,7.93
2017-07-03T11:37:39.217Z,7.80
2017-07-03T11:40:06.621Z,9.03
2017-07-03T11:42:34.058Z,8.70
2017-07-03T11:45:01.483Z,8.30
2017-07-03T11:47:28.898Z,8.20
2017-07-03T11:49:56.319Z,9.23
2017-07-03T11:52:23.717Z,8.30
2017-07-03T11:54:51.148Z,8.20
2017-07-03T11:57:18.555Z,8.17
2017-07-03T11:59:45.981Z,8.33
2017-07-03T12:02:13.411Z,8.63
2017-07-03T12:04:40.835Z,8.43
2017-07-03T12:07:08.248Z,8.57
2017-07-03T12:09:35.666Z,7.47
2017-07-03T12:12:03.095Z,8.13
2017-07-03T12:14:30.494Z,7.43
2017-07-03T12:16:57.918Z,7.63
2017-07-03T12:19:25.338Z,8.73
2017-07-03T12:21:52.750Z,8.07
2017-07-03T12:24:20.174Z,7.70
2017-07-03T12:26:47.589Z,10.80
2017-07-03T12:29:15.011Z,8.13
2017-07-03T12:31:42.418Z,8.73
2017-07-03T12:34:09.837Z,9.10
2017-07-03T12:36:37.251Z,8.60
2017-07-03T12:39:04.667Z,8.40
2017-07-03T12:41:32.086Z,8.23
2017-07-03T12:43:59.493Z,8.73
2017-07-03T12:46:26.905Z,9.40
2017-07-03T12:48:54.318Z,8.67
2017-07-03T12:51:21.745Z,8.10
2017-07-03T12:53:49.149Z,9.83
2017-07-03T12:56:16.549Z,9.60
2017-07-03T12:58:43.962Z,8.57
2017-07-03T13:01:11.365Z,9.50
2017-07-03T13:03:38.794Z,10.47
2017-07-03T13:06:06.207Z,9.33
2017-07-03T13:08:33.613Z,9.73
2017-07-03T13:11:01.025Z,9.93
2017-07-03T13:13:28.429Z,9.73
2017-07-03T13:15:55.857Z,9.80
2017-07-03T13:18:23.258Z,9.43
2017-07-03T13:20:50.657Z,9.97
2017-07-03T13:23:18.074Z,10.30
2017-07-03T13:25:45.483Z,9.97
2017-07-03T13:28:12.897Z,9.50
2017-07-03T13:30:40.310Z,10.40
2017-07-03T13:33:07.746Z,9.30
2017-07-03T13:35:35.146Z,9.47
2017-07-03T13:38:02.558Z,11.10
2017-07-03T13:40:29.981Z,9.17
2017-07-03T13:42:57.386Z,9.67
2017-07-03T13:45:24.817Z,10.30
2017-07-03T13:47:52.215Z,9.83
2017-07-03T13:50:19.658Z,9.93
2017-07-03T13:52:47.079Z,10.37
2017-07-03T13:55:14.489Z,11.00
2017-07-03T13:57:41.994Z,10.27
2017-07-03T14:00:09.396Z,9.90
2017-07-03T14:02:36.822Z,10.23
2017-07-03T14:05:04.226Z,9.10
2017-07-03T14:07:31.667Z,10.70
2017-07-03T14:09:59.085Z,9.70
2017-07-03T14:12:26.486Z,8.97
2017-07-03T14:14:53.903Z,8.33
2017-07-03T14:17:21.313Z,10.10
2017-07-03T14:19:48.726Z,9.93
2017-07-03T14:22:16.134Z,8.90
2017-07-03T14:24:43.568Z,10.47
2017-07-03T14:27:11.225Z,8.77
2017-07-03T14:29:38.630Z,8.70
2017-07-03T14:32:06.046Z,9.30
2017-07-03T14:34:33.484Z,9.60
2017-07-03T14:37:00.918Z,10.10
2017-07-03T14:39:28.321Z,9.80
2017-07-03T14:41:55.774Z,11.03
2017-07-03T14:44:23.185Z,9.50
2017-07-03T14:46:50.595Z,9.60
2017-07-03T14:49:18.100Z,8.87
2017-07-03T14:51:45.533Z,9.33
2017-07-03T14:54:12.971Z,9.60
2017-07-03T14:56:40.389Z,9.57
2017-07-03T14:59:07.833Z,10.20
2017-07-03T15:01:35.241Z,9.67
2017-07-03T15:04:02.649Z,10.40
2017-07-03T15:06:30.085Z,10.27
2017-07-03T15:08:57.497Z,10.10
2017-07-03T15:11:24.922Z,9.10
2017-07-03T15:13:52.325Z,9.53
2017-07-03T15:16:19.776Z,10.13
2017-07-03T15:18:47.183Z,10.33
2017-07-03T15:21:14.595Z,8.73
2017-07-03T15:23:42.009Z,9.77
2017-07-03T15:26:09.414Z,9.20
2017-07-03T15:28:36.831Z,9.43
2017-07-03T15:31:04.242Z,10.20
2017-07-03T15:33:31.682Z,9.53
2017-07-03T15:35:59.085Z,9.23
2017-07-03T15:38:26.494Z,9.40
2017-07-03T15:40:53.911Z,9.70
2017-07-03T15:43:21.321Z,8.63
2017-07-03T15:45:48.733Z,9.90
2017-07-03T15:48:16.146Z,10.43
2017-07-03T15:50:43.584Z,9.10
2017-07-03T15:53:10.999Z,10.10
2017-07-03T15:55:38.426Z,7.67
2017-07-03T15:58:05.846Z,8.57
2017-07-03T16:00:33.253Z,9.97
2017-07-03T16:03:00.677Z,9.83
2017-07-03T16:05:28.086Z,9.47
2017-07-03T16:07:55.495Z,9.37
2017-07-03T16:10:22.909Z,9.97
2017-07-03T16:12:50.322Z,9.93
2017-07-03T16:15:17.745Z,9.07
2017-07-03T16:17:45.150Z,9.93
2017-07-03T16:20:12.558Z,9.70
2017-07-03T16:22:39.973Z,10.53
2017-07-03T16:25:07.385Z,8.73
2017-07-03T16:27:34.809Z,10.43
2017-07-03T16:30:02.215Z,8.40
2017-07-03T16:32:29.617Z,9.10
2017-07-03T16:34:57.038Z,8.90
2017-07-03T16:37:24.437Z,9.37
2017-07-03T16:39:51.850Z,9.50
2017-07-03T16:42:19.252Z,9.20
2017-07-03T16:44:46.686Z,10.40
2017-07-03T16:47:14.093Z,10.40
2017-07-03T16:49:41.505Z,9.87
2017-07-03T16:52:08.919Z,9.63
2017-07-03T16:54:36.322Z,9.40
2017-07-03T16:57:03.761Z,9.70
2017-07-03T16:59:31.173Z,9.50
2017-07-03T17:01:58.618Z,10.07
2017-07-03T17:04:26.034Z,10.60
2017-07-03T17:06:53.440Z,11.03
2017-07-03T17:09:20.862Z,10.13
2017-07-03T17:11:48.276Z,10.17
2017-07-03T17:14:15.711Z,10.17
2017-07-03T17:16:43.116Z,9.50
2017-07-03T17:19:10.550Z,11.00
2017-07-03T17:21:37.967Z,10.13
2017-07-03T17:24:07.070Z,9.90
2017-07-03T17:26:34.542Z,9.80
2017-07-03T17:29:01.951Z,9.70
2017-07-03T17:31:29.888Z,9.30
2017-07-03T17:33:57.298Z,9.37
2017-07-03T17:36:24.722Z,8.90
2017-07-03T17:38:52.131Z,9.50
2017-07-03T17:41:19.538Z,9.70
2017-07-03T17:43:46.963Z,9.73
2017-07-03T17:46:14.398Z,9.13
2017-07-03T17:48:41.862Z,9.10
2017-07-03T17:51:09.273Z,9.33
2017-07-03T17:53:36.702Z,9.20
2017-07-03T17:56:04.105Z,8.70
2017-07-03T17:58:31.514Z,9.20
2017-07-03T18:00:58.938Z,9.40
2017-07-03T18:03:26.393Z,8.70
2017-07-03T18:05:53.806Z,8.47
2017-07-03T18:08:21.267Z,8.63
2017-07-03T18:10:48.781Z,8.37
2017-07-03T18:13:16.185Z,8.93
2017-07-03T18:15:43.593Z,9.13
2017-07-03T18:18:11.017Z,8.70
2017-07-03T18:20:38.422Z,8.57
2017-07-03T18:23:05.850Z,8.20
2017-07-03T18:25:33.253Z,8.30
2017-07-03T18:28:00.687Z,8.67
2017-07-03T18:30:28.082Z,8.50
2017-07-03T18:32:55.485Z,8.37
2017-07-03T18:35:22.897Z,8.23
2017-07-03T18:37:50.303Z,8.00
2017-07-03T18:40:17.729Z,8.40
2017-07-03T18:42:45.130Z,8.17
2017-07-03T18:45:12.545Z,8.40
2017-07-03T18:47:39.962Z,8.80
2017-07-03T18:50:07.415Z,8.03
2017-07-03T18:52:34.817Z,8.43
2017-07-03T18:55:02.227Z,8.73
2017-07-03T18:57:29.645Z,8.27
2017-07-03T18:59:57.054Z,8.10
2017-07-03T19:02:24.552Z,8.90
2017-07-03T19:04:51.975Z,7.90
2017-07-03T19:07:19.377Z,8.20
2017-07-03T19:09:46.794Z,8.10
2017-07-03T19:12:14.204Z,9.00
2017-07-03T19:14:41.626Z,9.03
2017-07-03T19:17:09.030Z,8.63
2017-07-03T19:19:36.438Z,8.57
2017-07-03T19:22:03.849Z,9.57
2017-07-03T19:24:31.254Z,8.40
2017-07-03T19:26:58.665Z,8.87
2017-07-03T19:29:26.066Z,8.10
2017-07-03T19:31:53.495Z,8.83
2017-07-03T19:34:20.903Z,8.20
2017-07-03T19:36:48.301Z,8.93
2017-07-03T19:39:15.721Z,10.33
2017-07-03T19:41:43.126Z,8.77
2017-07-03T19:44:10.547Z,9.67
2017-07-03T19:46:37.965Z,10.97
2017-07-03T19:49:05.385Z,9.10
2017-07-03T19:51:32.793Z,8.93
2017-07-03T19:54:00.208Z,8.93
2017-07-03T19:56:27.625Z,9.60
2017-07-03T19:58:55.039Z,10.03
2017-07-03T20:01:22.450Z,9.50
2017-07-03T20:03:49.857Z,9.13
2017-07-03T20:06:17.288Z,8.83
2017-07-03T20:08:44.693Z,8.97
2017-07-03T20:11:12.110Z,8.90
2017-07-03T20:13:39.529Z,9.07
2017-07-03T20:16:06.938Z,8.50
2017-07-03T20:18:34.358Z,8.73
2017-07-03T20:21:01.774Z,9.53
2017-07-03T20:23:29.194Z,9.77
2017-07-03T20:25:56.602Z,10.37
2017-07-03T20:28:24.010Z,9.60
2017-07-03T20:30:51.426Z,10.37
2017-07-03T20:33:18.847Z,11.20
2017-07-03T20:35:46.264Z,11.70
2017-07-03T20:38:13.690Z,11.83
2017-07-03T20:40:41.117Z,10.50
2017-07-03T20:43:08.529Z,10.43
2017-07-03T20:45:35.941Z,9.93
2017-07-03T20:48:03.357Z,10.03
2017-07-03T20:50:30.770Z,10.53
2017-07-03T20:52:58.187Z,9.80
2017-07-03T20:55:25.585Z,9.30
2017-07-03T20:57:53.027Z,9.53
2017-07-03T21:00:20.424Z,10.20
2017-07-03T21:02:47.832Z,10.37
2017-07-03T21:05:15.261Z,10.60
2017-07-03T21:07:42.681Z,11.47
2017-07-03T21:10:10.113Z,11.00
2017-07-03T21:12:37.538Z,10.60
2017-07-03T21:15:04.944Z,10.87
2017-07-03T21:17:32.378Z,11.57
2017-07-03T21:19:59.794Z,10.60
2017-07-03T21:22:27.213Z,10.60
2017-07-03T21:24:54.633Z,10.60
2017-07-03T21:27:22.063Z,10.30
2017-07-03T21:29:49.477Z,10.70
2017-07-03T21:32:16.894Z,11.30
2017-07-03T21:34:44.328Z,10.93
2017-07-03T21:37:11.731Z,10.73
2017-07-03T21:39:39.148Z,11.50
2017-07-03T21:42:06.561Z,12.00
2017-07-03T21:44:33.993Z,11.30
2017-07-03T21:47:01.409Z,11.77
2017-07-03T21:49:28.829Z,11.30
2017-07-03T21:51:56.250Z,10.47
2017-07-03T21:54:23.670Z,10.97
2017-07-03T21:56:51.092Z,10.93
2017-07-03T21:59:18.509Z,11.60
2017-07-03T22:01:45.938Z,10.47
2017-07-03T22:04:13.358Z,11.10
2017-07-03T22:06:40.772Z,10.87
2017-07-03T22:09:08.209Z,10.83
2017-07-03T22:11:35.642Z,11.00
2017-07-03T22:14:03.073Z,11.57
2017-07-03T22:16:30.489Z,11.63
2017-07-03T22:18:57.921Z,11.80
2017-07-03T22:21:25.337Z,11.27
2017-07-03T22:23:53.481Z,10.73
2017-07-03T22:26:21.000Z,11.13
2017-07-03T22:28:48.416Z,11.73
2017-07-03T22:31:15.849Z,11.47
2017-07-03T22:33:43.322Z,11.50
2017-07-03T22:36:10.752Z,11.00
2017-07-03T22:38:38.181Z,10.90
2017-07-03T22:41:05.594Z,11.53
2017-07-03T22:43:33.053Z,10.87
2017-07-03T22:46:00.478Z,10.77
2017-07-03T22:48:27.901Z,12.33
2017-07-03T22:50:55.315Z,11.70
2017-07-03T22:53:22.766Z,11.30
2017-07-03T22:55:50.209Z,14.30
2017-07-03T22:58:17.661Z,11.20
2017-07-03T23:00:45.126Z,11.63
2017-07-03T23:03:12.546Z,12.00
2017-07-03T23:05:40.084Z,11.03
2017-07-03T23:08:07.492Z,11.77
2017-07-03T23:10:35.001Z,11.27
2017-07-03T23:13:02.422Z,11.67
2017-07-03T23:15:29.846Z,11.17
2017-07-03T23:17:57.286Z,11.67
2017-07-03T23:20:24.712Z,11.20
2017-07-03T23:22:52.122Z,10.10
2017-07-03T23:25:19.610Z,11.13
2017-07-03T23:27:47.037Z,10.83
2017-07-03T23:30:14.481Z,11.07
2017-07-03T23:32:41.915Z,10.93
2017-07-03T23:35:09.363Z,11.43
2017-07-03T23:37:36.813Z,10.70
2017-07-03T23:40:04.253Z,10.97
2017-07-03T23:42:31.681Z,11.13
2017-07-03T23:44:59.117Z,10.93
2017-07-03T23:47:26.546Z,11.33
2017-07-03T23:49:53.976Z,11.17
2017-07-03T23:52:21.418Z,11.10
2017-07-03T23:54:48.873Z,10.27
2017-07-03T23:57:16.347Z,10.53
2017-07-03T23:59:43.781Z,11.50
